createdAt,value
2023-11-13T00:00:14.722Z,100167.44
2023-11-13T00:03:00.518Z,100166.09
2023-11-13T00:05:45.851Z,100163.81
2023-11-13T00:08:31.331Z,100165.94
2023-11-13T00:11:16.242Z,100155.94
2023-11-13T00:14:01.159Z,100161.59
2023-11-13T00:16:47.812Z,100165.47
2023-11-13T00:19:34.091Z,100165.91
2023-11-13T00:22:19.032Z,100152.91
2023-11-13T00:25:04.606Z,100141.69
2023-11-13T00:27:49.771Z,100163.63
2023-11-13T00:30:35.225Z,100165.13
2023-11-13T00:33:20.176Z,100181.41
2023-11-13T00:36:06.165Z,100181.28
2023-11-13T00:38:50.988Z,100168.63
2023-11-13T00:41:35.941Z,100161.41
2023-11-13T00:44:20.841Z,100143.78
2023-11-13T00:47:05.867Z,100154.16
2023-11-13T00:49:50.882Z,100152.81
2023-11-13T00:52:35.796Z,100153.19
2023-11-13T00:55:20.746Z,100146.66
2023-11-13T00:58:05.981Z,100144.31
2023-11-13T01:00:51.105Z,100144.09
2023-11-13T01:03:37.519Z,100140.19
2023-11-13T01:06:23.919Z,100130.81
2023-11-13T01:09:08.868Z,100132.31
2023-11-13T01:11:53.859Z,100125.84
2023-11-13T01:14:39.293Z,100129.28
2023-11-13T01:17:24.417Z,100131.31
2023-11-13T01:20:10.212Z,100131.75
2023-11-13T01:22:55.205Z,100133.53
2023-11-13T01:25:41.612Z,100126.97
2023-11-13T01:28:26.615Z,100138.47
2023-11-13T01:31:11.405Z,100136.56
2023-11-13T01:33:56.414Z,100134.13
2023-11-13T01:36:44.935Z,100119.13
2023-11-13T01:39:29.975Z,100112.09
2023-11-13T01:42:14.957Z,100108.25
2023-11-13T01:44:59.741Z,100111.75
2023-11-13T01:47:47.046Z,100108.25
2023-11-13T01:50:32.238Z,100115.13
2023-11-13T01:53:26.321Z,100115.03
2023-11-13T01:56:12.285Z,100117.63
2023-11-13T01:58:58.956Z,100110.78
2023-11-13T02:01:44.594Z,100106.72
2023-11-13T02:04:29.541Z,100101.22
2023-11-13T02:07:15.035Z,100099.44
2023-11-13T02:10:00.484Z,100109.94
2023-11-13T02:12:46.391Z,100113.66
2023-11-13T02:15:31.846Z,100108.44
2023-11-13T02:18:17.225Z,100104.91
2023-11-13T02:21:02.220Z,100096.09
2023-11-13T02:23:48.486Z,100085.66
2023-11-13T02:26:33.535Z,100082.53
2023-11-13T02:29:18.866Z,100061.97
2023-11-13T02:32:04.253Z,100055.16
2023-11-13T02:34:49.056Z,100065.38
2023-11-13T02:37:34.869Z,100066.47
2023-11-13T02:40:20.043Z,100068.91
2023-11-13T02:43:05.426Z,100069.06
2023-11-13T02:45:50.280Z,100073.75
2023-11-13T02:48:35.607Z,100069.34
2023-11-13T02:51:20.364Z,100063.50
2023-11-13T02:54:05.675Z,100075.16
2023-11-13T02:56:50.684Z,100071.91
2023-11-13T02:59:35.748Z,100076.94
2023-11-13T03:02:20.659Z,100081.31
2023-11-13T03:05:05.942Z,100077.56
2023-11-13T03:07:51.613Z,100072.69
2023-11-13T03:10:36.520Z,100059.88
2023-11-13T03:13:21.427Z,100070.13
2023-11-13T03:16:06.429Z,100071.81
2023-11-13T03:18:51.908Z,100062.66
2023-11-13T03:21:37.093Z,100069.88
2023-11-13T03:24:21.912Z,100068.81
2023-11-13T03:27:06.946Z,100064.00
2023-11-13T03:29:52.143Z,100050.69
2023-11-13T03:32:37.152Z,100051.88
2023-11-13T03:35:22.278Z,100056.13
2023-11-13T03:38:07.320Z,100051.78
2023-11-13T03:40:52.169Z,100053.78
2023-11-13T03:43:37.100Z,100055.16
2023-11-13T03:46:21.945Z,100052.00
2023-11-13T03:49:07.300Z,100040.03
2023-11-13T03:51:52.715Z,100037.84
2023-11-13T03:54:37.632Z,100027.78
2023-11-13T03:57:22.587Z,100039.22
2023-11-13T04:00:07.963Z,100028.44
2023-11-13T04:02:52.965Z,100023.47
2023-11-13T04:05:38.390Z,100054.28
2023-11-13T04:08:23.241Z,100065.56
2023-11-13T04:11:10.096Z,100078.44
2023-11-13T04:13:57.103Z,100058.19
2023-11-13T04:16:42.104Z,100052.28
2023-11-13T04:19:29.314Z,100057.59
2023-11-13T04:22:14.293Z,100051.63
2023-11-13T04:25:00.606Z,100046.50
2023-11-13T04:27:45.821Z,100037.22
2023-11-13T04:30:30.744Z,100044.06
2023-11-13T04:33:16.332Z,100033.25
2023-11-13T04:36:01.672Z,100030.66
2023-11-13T04:38:46.449Z,100011.25
2023-11-13T04:41:31.262Z,100004.28
2023-11-13T04:44:16.148Z,99997.88
2023-11-13T04:47:01.494Z,100001.38
2023-11-13T04:49:48.749Z,100013.16
2023-11-13T04:52:35.400Z,100023.69
2023-11-13T04:55:20.732Z,100017.88
2023-11-13T04:58:06.168Z,100020.25
2023-11-13T05:00:51.296Z,100015.63
2023-11-13T05:03:37.589Z,100011.25
2023-11-13T05:06:22.494Z,100017.13
2023-11-13T05:09:07.304Z,100010.63
2023-11-13T05:11:52.162Z,99995.69
2023-11-13T05:14:40.361Z,99989.13
2023-11-13T05:17:25.426Z,99981.59
2023-11-13T05:20:10.707Z,99976.47
2023-11-13T05:22:55.413Z,99974.72
2023-11-13T05:25:40.230Z,99966.13
2023-11-13T05:28:24.954Z,99968.81
2023-11-13T05:31:10.327Z,99959.50
2023-11-13T05:33:56.196Z,99955.31
2023-11-13T05:36:41.053Z,99956.94
2023-11-13T05:39:26.035Z,99946.81
2023-11-13T05:42:10.862Z,99944.50
2023-11-13T05:44:55.844Z,99936.66
2023-11-13T05:47:40.701Z,99928.13
2023-11-13T05:50:25.711Z,99932.47
2023-11-13T05:53:10.500Z,99933.25
2023-11-13T05:55:57.868Z,99942.91
2023-11-13T05:58:43.455Z,99934.34
2023-11-13T06:01:28.246Z,99930.22
2023-11-13T06:04:13.133Z,99932.09
2023-11-13T06:06:58.456Z,99931.16
2023-11-13T06:09:43.819Z,99933.94
2023-11-13T06:12:28.806Z,99923.81
2023-11-13T06:15:14.081Z,99917.91
2023-11-13T06:17:59.031Z,99913.72
2023-11-13T06:20:44.409Z,99906.25
2023-11-13T06:23:29.481Z,99902.38
2023-11-13T06:26:14.370Z,99896.56
2023-11-13T06:28:59.283Z,99902.75
2023-11-13T06:31:44.119Z,99901.97
2023-11-13T06:34:29.341Z,99895.94
2023-11-13T06:37:14.389Z,99897.75
2023-11-13T06:39:59.750Z,99902.16
2023-11-13T06:42:45.933Z,99903.09
2023-11-13T06:45:30.985Z,99897.16
2023-11-13T06:48:15.898Z,99896.31
2023-11-13T06:51:00.995Z,99896.63
2023-11-13T06:53:45.865Z,99888.09
2023-11-13T06:56:33.815Z,99888.94
2023-11-13T06:59:18.485Z,99881.34
2023-11-13T07:02:03.431Z,99888.22
2023-11-13T07:04:49.068Z,99900.28
2023-11-13T07:07:34.206Z,99895.91
2023-11-13T07:10:19.283Z,99899.38
2023-11-13T07:13:04.102Z,99903.91
2023-11-13T07:15:49.494Z,99902.22
2023-11-13T07:18:34.824Z,99895.38
2023-11-13T07:21:19.598Z,99894.56
2023-11-13T07:24:05.289Z,99896.31
2023-11-13T07:26:50.411Z,99901.44
2023-11-13T07:29:36.017Z,99905.94
2023-11-13T07:32:20.917Z,99907.56
2023-11-13T07:35:06.720Z,99910.34
2023-11-13T07:37:51.456Z,99912.13
2023-11-13T07:40:37.015Z,99906.34
2023-11-13T07:43:22.503Z,99904.72
2023-11-13T07:46:07.492Z,99901.16
2023-11-13T07:48:52.700Z,99896.94
2023-11-13T07:51:37.624Z,99890.94
2023-11-13T07:54:22.422Z,99886.97
2023-11-13T07:57:08.024Z,99885.31
2023-11-13T07:59:53.169Z,99881.19
2023-11-13T08:02:38.808Z,99880.69
2023-11-13T08:05:23.986Z,99879.13
2023-11-13T08:08:09.263Z,99869.91
2023-11-13T08:10:54.206Z,99864.72
2023-11-13T08:13:39.251Z,99863.22
2023-11-13T08:16:24.125Z,99854.72
2023-11-13T08:19:09.616Z,99853.03
2023-11-13T08:21:54.570Z,99842.03
2023-11-13T08:24:39.559Z,99843.84
2023-11-13T08:27:24.505Z,99836.25
2023-11-13T08:30:10.254Z,99829.41
2023-11-13T08:32:55.222Z,99832.16
2023-11-13T08:35:40.386Z,99828.84
2023-11-13T08:38:25.528Z,99820.91
2023-11-13T08:41:10.629Z,99824.38
2023-11-13T08:43:56.259Z,99816.81
2023-11-13T08:46:41.675Z,99806.78
2023-11-13T08:49:26.950Z,99791.38
2023-11-13T08:52:11.949Z,99794.00
2023-11-13T08:54:58.375Z,99785.50
2023-11-13T08:57:46.261Z,99782.13
2023-11-13T09:00:31.253Z,99781.16
2023-11-13T09:03:16.322Z,99785.56
2023-11-13T09:06:05.021Z,99789.09
2023-11-13T09:08:50.328Z,99774.47
2023-11-13T09:11:35.047Z,99770.13
2023-11-13T09:14:20.194Z,99778.53
2023-11-13T09:17:05.254Z,99783.00
2023-11-13T09:19:50.391Z,99769.38
2023-11-13T09:22:35.861Z,99764.25
2023-11-13T09:25:21.961Z,99771.03
2023-11-13T09:28:07.004Z,99763.38
2023-11-13T09:30:52.273Z,99762.63
2023-11-13T09:33:37.679Z,99763.44
2023-11-13T09:36:22.636Z,99767.81
2023-11-13T09:39:07.459Z,99762.69
2023-11-13T09:41:52.621Z,99774.66
2023-11-13T09:44:50.139Z,99771.28
2023-11-13T09:47:44.364Z,99770.59
2023-11-13T09:50:30.124Z,99772.25
2023-11-13T09:53:16.345Z,99781.88
2023-11-13T09:56:01.234Z,99771.41
2023-11-13T09:58:50.123Z,99769.81
2023-11-13T10:01:35.719Z,99761.22
2023-11-13T10:04:20.974Z,99761.31
2023-11-13T10:07:07.153Z,99748.59
2023-11-13T10:10:02.805Z,99744.25
2023-11-13T10:12:48.554Z,99736.56
2023-11-13T10:15:34.518Z,99724.59
2023-11-13T10:18:26.980Z,99729.97
2023-11-13T10:21:34.845Z,99719.75
2023-11-13T10:24:30.832Z,99720.66
2023-11-13T10:27:23.014Z,99710.38
2023-11-13T10:30:08.644Z,99684.00
2023-11-13T10:32:54.461Z,99683.25
2023-11-13T10:35:39.443Z,99680.63
2023-11-13T10:38:24.363Z,99658.41
2023-11-13T10:41:09.140Z,99654.97
2023-11-13T10:43:54.113Z,99647.44
2023-11-13T10:46:39.125Z,99636.38
2023-11-13T10:49:25.099Z,99627.00
2023-11-13T10:52:10.002Z,99612.50
2023-11-13T10:54:56.542Z,99609.13
2023-11-13T10:57:42.695Z,99603.19
2023-11-13T11:00:27.835Z,99603.25
2023-11-13T11:03:13.027Z,99592.09
2023-11-13T11:06:01.144Z,99586.16
2023-11-13T11:08:47.033Z,99578.44
2023-11-13T11:11:33.150Z,99582.75
2023-11-13T11:14:26.757Z,99582.78
2023-11-13T11:17:23.456Z,99593.19
2023-11-13T11:20:16.369Z,99565.72
2023-11-13T11:23:02.317Z,99546.88
2023-11-13T11:25:50.110Z,99539.13
2023-11-13T11:28:44.368Z,99541.59
2023-11-13T11:31:31.068Z,99539.09
2023-11-13T11:34:18.098Z,99528.00
2023-11-13T11:37:03.561Z,99528.75
2023-11-13T11:39:53.380Z,99518.50
2023-11-13T11:42:38.376Z,99509.13
2023-11-13T11:45:27.608Z,99510.94
2023-11-13T11:48:14.794Z,99479.16
2023-11-13T11:51:13.555Z,99480.03
2023-11-13T11:54:00.593Z,99470.56
2023-11-13T11:57:02.924Z,99468.88
2023-11-13T11:59:48.168Z,99447.41
2023-11-13T12:02:33.614Z,99436.25
2023-11-13T12:05:18.841Z,99437.19
2023-11-13T12:08:11.015Z,99425.16
2023-11-13T12:10:58.056Z,99418.28
2023-11-13T12:13:43.490Z,99399.38
2023-11-13T12:16:28.739Z,99379.63
2023-11-13T12:19:14.238Z,99375.31
2023-11-13T12:21:59.788Z,99365.00
2023-11-13T12:24:44.757Z,99362.41
2023-11-13T12:27:29.980Z,99343.47
2023-11-13T12:30:15.823Z,99340.91
2023-11-13T12:33:01.292Z,99325.41
2023-11-13T12:35:55.910Z,99310.78
2023-11-13T12:38:44.041Z,99301.34
2023-11-13T12:41:29.414Z,99296.16
2023-11-13T12:44:18.590Z,99285.00
2023-11-13T12:47:03.945Z,99278.13
2023-11-13T12:49:50.188Z,99280.72
2023-11-13T12:52:39.025Z,99266.09
2023-11-13T12:55:24.483Z,99271.19
2023-11-13T12:58:10.046Z,99250.56
2023-11-13T13:00:55.662Z,99241.97
2023-11-13T13:03:40.543Z,99227.38
2023-11-13T13:06:25.721Z,99249.69
2023-11-13T13:09:13.122Z,99227.38
2023-11-13T13:11:58.287Z,99220.50
2023-11-13T13:14:43.312Z,99199.94
2023-11-13T13:17:28.395Z,99171.59
2023-11-13T13:20:13.580Z,99151.84
2023-11-13T13:22:59.976Z,99152.72
2023-11-13T13:25:44.999Z,99125.19
2023-11-13T13:28:30.592Z,99118.31
2023-11-13T13:31:16.111Z,99129.50
2023-11-13T13:34:01.024Z,99104.56
2023-11-13T13:36:46.340Z,99069.34
2023-11-13T13:39:31.433Z,99062.50
2023-11-13T13:42:16.562Z,99058.19
2023-11-13T13:45:01.625Z,99060.78
2023-11-13T13:47:47.281Z,99058.22
2023-11-13T13:50:32.330Z,99057.34
2023-11-13T13:53:17.228Z,99038.41
2023-11-13T13:56:03.169Z,99023.81
2023-11-13T13:58:48.119Z,99015.22
2023-11-13T14:01:33.474Z,99014.34
2023-11-13T14:04:19.156Z,99020.34
2023-11-13T14:07:04.229Z,99038.34
2023-11-13T14:09:49.264Z,99048.66
2023-11-13T14:12:34.126Z,99058.94
2023-11-13T14:15:18.992Z,99036.59
2023-11-13T14:18:04.515Z,99004.75
2023-11-13T14:20:49.849Z,98992.69
2023-11-13T14:23:35.140Z,99005.53
2023-11-13T14:26:20.242Z,99011.47
2023-11-13T14:29:05.193Z,99007.97
2023-11-13T14:31:50.222Z,98997.56
2023-11-13T14:34:35.525Z,98994.91
2023-11-13T14:37:20.377Z,98989.63
2023-11-13T14:40:06.931Z,98991.22
2023-11-13T14:42:52.828Z,98996.28
2023-11-13T14:45:38.768Z,99015.16
2023-11-13T14:48:23.999Z,99009.03
2023-11-13T14:51:09.354Z,98989.91
2023-11-13T14:53:54.311Z,98975.97
2023-11-13T14:56:39.313Z,99000.81
2023-11-13T14:59:24.631Z,98999.78
2023-11-13T15:02:09.612Z,98985.81
2023-11-13T15:04:54.509Z,98985.66
2023-11-13T15:07:40.000Z,98982.94
2023-11-13T15:10:25.160Z,98979.34
2023-11-13T15:13:10.170Z,98976.63
2023-11-13T15:15:55.499Z,98984.25
2023-11-13T15:18:47.822Z,98970.41
2023-11-13T15:21:35.534Z,98978.13
2023-11-13T15:24:20.572Z,98970.84
2023-11-13T15:27:06.441Z,98976.66
2023-11-13T15:29:51.426Z,98955.00
2023-11-13T15:32:54.616Z,98970.53
2023-11-13T15:35:39.320Z,98956.72
2023-11-13T15:38:24.259Z,98942.56
2023-11-13T15:41:08.973Z,98938.06
2023-11-13T15:43:53.946Z,98923.97
2023-11-13T15:46:39.093Z,98941.16
2023-11-13T15:49:24.441Z,98939.25
2023-11-13T15:52:09.846Z,98940.78
2023-11-13T15:54:54.701Z,98952.09
2023-11-13T15:57:40.211Z,98968.50
2023-11-13T16:00:25.048Z,98936.47
2023-11-13T16:03:09.963Z,98956.22
2023-11-13T16:05:55.292Z,98927.56
2023-11-13T16:08:41.606Z,98894.78
2023-11-13T16:11:26.979Z,98909.78
2023-11-13T16:14:12.062Z,98910.72
2023-11-13T16:16:56.962Z,98925.53
2023-11-13T16:19:45.616Z,98938.41
2023-11-13T16:22:31.200Z,98937.53
2023-11-13T16:25:16.147Z,98902.94
2023-11-13T16:28:00.934Z,98912.25
2023-11-13T16:30:45.885Z,98908.03
2023-11-13T16:33:31.519Z,98907.41
2023-11-13T16:36:16.727Z,98935.97
2023-11-13T16:39:02.141Z,98915.16
2023-11-13T16:41:47.137Z,98883.78
2023-11-13T16:44:32.070Z,98902.84
2023-11-13T16:47:17.039Z,98923.53
2023-11-13T16:50:02.396Z,98928.72
2023-11-13T16:52:47.414Z,98942.44
2023-11-13T16:55:32.633Z,98945.78
2023-11-13T16:58:18.059Z,98944.00
2023-11-13T17:01:05.498Z,98933.66
2023-11-13T17:03:52.986Z,98955.25
2023-11-13T17:06:37.982Z,98942.91
2023-11-13T17:09:22.821Z,98942.78
2023-11-13T17:12:07.898Z,98943.47
2023-11-13T17:14:52.643Z,98927.13
2023-11-13T17:17:38.392Z,98945.41
2023-11-13T17:20:23.559Z,98928.19
2023-11-13T17:23:08.510Z,98926.63
2023-11-13T17:25:53.938Z,98913.38
2023-11-13T17:28:39.132Z,98922.00
2023-11-13T17:31:24.558Z,98917.72
2023-11-13T17:34:09.927Z,98928.94
2023-11-13T17:36:55.150Z,98926.47
2023-11-13T17:39:40.074Z,98927.25
2023-11-13T17:42:26.034Z,98917.47
2023-11-13T17:45:11.071Z,98900.31
2023-11-13T17:47:58.723Z,98915.13
2023-11-13T17:50:45.323Z,98904.56
2023-11-13T17:53:30.248Z,98921.09
2023-11-13T17:56:15.490Z,98905.66
2023-11-13T17:59:00.331Z,98911.59
2023-11-13T18:01:45.143Z,98915.97
2023-11-13T18:04:30.890Z,98925.44
2023-11-13T18:07:16.205Z,98930.06
2023-11-13T18:10:01.374Z,98923.91
2023-11-13T18:12:46.289Z,98930.72
2023-11-13T18:15:31.245Z,98923.72
2023-11-13T18:18:16.267Z,98920.31
2023-11-13T18:21:01.118Z,98941.84
2023-11-13T18:23:46.116Z,98937.66
2023-11-13T18:26:30.904Z,98942.84
2023-11-13T18:29:16.230Z,98972.38
2023-11-13T18:32:01.400Z,98959.47
2023-11-13T18:34:46.166Z,98954.25
2023-11-13T18:37:31.703Z,98957.78
2023-11-13T18:40:17.100Z,98970.88
2023-11-13T18:43:01.903Z,98989.06
2023-11-13T18:45:46.728Z,98990.91
2023-11-13T18:48:32.176Z,98984.78
2023-11-13T18:51:17.756Z,99003.81
2023-11-13T18:54:02.723Z,99009.97
2023-11-13T18:56:47.640Z,99004.06
2023-11-13T18:59:32.410Z,99011.91
2023-11-13T19:02:17.396Z,99002.31
2023-11-13T19:05:02.183Z,99010.19
2023-11-13T19:07:47.170Z,99021.56
2023-11-13T19:10:32.589Z,99007.78
2023-11-13T19:13:17.827Z,98990.75
2023-11-13T19:16:02.777Z,98979.59
2023-11-13T19:18:47.601Z,98962.31
2023-11-13T19:21:32.550Z,98980.66
2023-11-13T19:24:17.344Z,98978.97
2023-11-13T19:27:02.313Z,98971.97
2023-11-13T19:29:47.143Z,98975.59
2023-11-13T19:32:31.984Z,98970.31
2023-11-13T19:35:17.432Z,98966.22
2023-11-13T19:38:05.501Z,98973.38
2023-11-13T19:40:50.380Z,98976.03
2023-11-13T19:43:35.114Z,98988.88
2023-11-13T19:46:20.088Z,99002.66
2023-11-13T19:49:05.566Z,99008.78
2023-11-13T19:51:50.448Z,99006.97
2023-11-13T19:54:35.666Z,98995.88
2023-11-13T19:57:20.995Z,99006.94
2023-11-13T20:00:06.786Z,99034.75
2023-11-13T20:02:52.165Z,99023.69
2023-11-13T20:05:37.656Z,99041.06
2023-11-13T20:08:22.631Z,99040.22
2023-11-13T20:11:07.497Z,99035.16
2023-11-13T20:13:53.022Z,99030.13
2023-11-13T20:16:38.442Z,99035.22
2023-11-13T20:19:23.815Z,99025.69
2023-11-13T20:22:08.711Z,99024.09
2023-11-13T20:24:53.712Z,99032.72
2023-11-13T20:27:38.672Z,99024.91
2023-11-13T20:30:23.645Z,99024.28
2023-11-13T20:33:08.616Z,99028.56
2023-11-13T20:35:54.010Z,99045.84
2023-11-13T20:38:39.416Z,99035.41
2023-11-13T20:41:25.480Z,99040.75
2023-11-13T20:44:10.572Z,99032.84
2023-11-13T20:46:56.481Z,99055.34
2023-11-13T20:49:41.628Z,99043.25
2023-11-13T20:52:26.979Z,99035.53
2023-11-13T20:55:12.401Z,99052.91
2023-11-13T20:57:57.396Z,99049.50
2023-11-13T21:00:42.290Z,99062.41
2023-11-13T21:03:28.547Z,99069.16
2023-11-13T21:06:13.610Z,99051.88
2023-11-13T21:08:58.409Z,99062.31
2023-11-13T21:11:43.365Z,99063.97
2023-11-13T21:14:28.162Z,99078.72
2023-11-13T21:17:13.039Z,99081.34
2023-11-13T21:19:58.403Z,99080.50
2023-11-13T21:22:43.281Z,99096.09
2023-11-13T21:25:28.157Z,99112.56
2023-11-13T21:28:13.021Z,99102.22
2023-11-13T21:30:58.489Z,99103.84
2023-11-13T21:33:44.516Z,99097.69
2023-11-13T21:36:29.738Z,99129.72
2023-11-13T21:39:14.826Z,99121.97
2023-11-13T21:41:59.624Z,99131.38
2023-11-13T21:44:44.642Z,99142.78
2023-11-13T21:47:29.432Z,99134.13
2023-11-13T21:50:14.936Z,99157.50
2023-11-13T21:52:59.772Z,99160.91
2023-11-13T21:55:45.245Z,99156.59
2023-11-13T21:58:30.842Z,99157.50
2023-11-13T22:01:15.778Z,99172.25
2023-11-13T22:04:01.136Z,99182.53
2023-11-13T22:06:46.052Z,99179.16
2023-11-13T22:09:31.426Z,99169.56
2023-11-13T22:12:16.399Z,99163.47
2023-11-13T22:15:01.813Z,99169.53
2023-11-13T22:17:46.753Z,99158.25
2023-11-13T22:20:31.881Z,99161.69
2023-11-13T22:23:17.019Z,99163.31
2023-11-13T22:26:01.803Z,99179.75
2023-11-13T22:28:46.600Z,99165.13
2023-11-13T22:31:31.909Z,99152.22
2023-11-13T22:34:16.962Z,99166.03
2023-11-13T22:37:01.739Z,99172.97
2023-11-13T22:39:47.137Z,99173.88
2023-11-13T22:42:32.180Z,99182.53
2023-11-13T22:45:17.042Z,99185.16
2023-11-13T22:48:02.086Z,99190.38
2023-11-13T22:50:47.358Z,99182.53
2023-11-13T22:53:32.381Z,99180.00
2023-11-13T22:56:17.178Z,99174.69
2023-11-13T22:59:02.060Z,99179.97
2023-11-13T23:01:46.881Z,99186.09
2023-11-13T23:04:32.227Z,99191.13
2023-11-13T23:07:17.168Z,99176.47
2023-11-13T23:10:02.136Z,99192.00
2023-11-13T23:12:47.173Z,99190.25
2023-11-13T23:15:33.132Z,99179.94
2023-11-13T23:18:18.018Z,99185.97
2023-11-13T23:21:03.332Z,99198.00
2023-11-13T23:23:48.152Z,99192.00
2023-11-13T23:26:33.101Z,99195.50
2023-11-13T23:29:18.052Z,99180.78
2023-11-13T23:32:03.092Z,99182.47
2023-11-13T23:34:47.952Z,99180.78
2023-11-13T23:37:33.382Z,99211.00
2023-11-13T23:40:18.089Z,99221.31
2023-11-13T23:43:03.007Z,99189.34
2023-11-13T23:45:47.968Z,99188.50
2023-11-13T23:48:32.944Z,99203.06
2023-11-13T23:51:17.895Z,99206.59
2023-11-13T23:54:02.700Z,99195.34
2023-11-13T23:56:48.049Z,99197.00
2023-11-13T23:59:33.181Z,99204.78
